Time;durP1;ratioP1;P1;durP2;ratioP2;P2;SDS_P1;SDS_P2;PMS_P1;PMS_P2;Temp;Humidity;BMP_temperature;BMP_pressure;BME280_temperature;BME280_humidity;BME280_pressure;Samples;Min_cycle;Max_cycle;Signal;HPM_P1;HPM_P2
2021/08/01 00:01:57;;;;;;;6.45;2.38;;;18.20;75.80;;;;;;5052743;28;20025;-73
2021/08/01 00:04:23;;;;;;;7.45;2.60;;;18.20;76.10;;;;;;5052665;28;20021;-73
2021/08/01 00:06:48;;;;;;;10.25;2.90;;;18.20;76.10;;;;;;5052503;28;20049;-71
2021/08/01 00:09:16;;;;;;;5.82;2.42;;;18.10;76.10;;;;;;5052629;28;20025;-72
2021/08/01 00:11:42;;;;;;;10.98;2.83;;;18.10;76.30;;;;;;5052625;28;20013;-73
2021/08/01 00:14:08;;;;;;;4.97;2.53;;;18.10;76.20;;;;;;5052494;28;20059;-73
2021/08/01 00:16:33;;;;;;;5.38;2.35;;;18.10;76.50;;;;;;5052622;28;20066;-72
2021/08/01 00:18:59;;;;;;;5.88;2.83;;;18.10;76.50;;;;;;5052538;28;20392;-74
2021/08/01 00:21:25;;;;;;;5.47;2.55;;;18.00;76.60;;;;;;5052576;28;20028;-72
2021/08/01 00:23:50;;;;;;;5.25;2.85;;;18.00;77.40;;;;;;5034659;28;20028;-75
2021/08/01 00:26:16;;;;;;;9.82;3.05;;;18.00;77.60;;;;;;5052475;28;20029;-74
2021/08/01 00:28:42;;;;;;;6.70;3.10;;;18.00;77.80;;;;;;5052445;28;20032;-72
2021/08/01 00:31:07;;;;;;;6.55;3.10;;;17.80;77.80;;;;;;5052475;28;20473;-73
2021/08/01 00:33:33;;;;;;;6.50;2.85;;;17.80;78.20;;;;;;5056204;28;20057;-73
2021/08/01 00:35:58;;;;;;;6.00;2.85;;;17.50;78.70;;;;;;5056261;28;20482;-73
2021/08/01 00:38:24;;;;;;;5.35;3.13;;;17.40;80.00;;;;;;5056231;28;20036;-72
2021/08/01 00:40:49;;;;;;;8.88;3.25;;;17.60;79.40;;;;;;5056066;28;20032;-74
2021/08/01 00:43:15;;;;;;;5.65;2.45;;;17.60;79.40;;;;;;5056105;28;20100;-73
2021/08/01 00:45:41;;;;;;;7.63;3.15;;;17.70;78.70;;;;;;5056060;28;20461;-74
2021/08/01 00:48:11;;;;;;;6.07;2.38;;;17.80;78.20;;;;;;5056059;28;20051;-73
2021/08/01 00:50:37;;;;;;;5.15;2.53;;;17.80;77.80;;;;;;5056021;28;20389;-74
2021/08/01 00:53:05;;;;;;;7.25;2.72;;;17.70;77.60;;;;;;5055979;28;20131;-73
2021/08/01 00:55:30;;;;;;;5.20;2.53;;;17.70;77.40;;;;;;5055809;28;20444;-73
2021/08/01 00:57:56;;;;;;;6.72;2.75;;;17.80;77.20;;;;;;5055851;28;20025;-74
2021/08/01 01:00:39;;;;;;;9.82;2.85;;;17.70;77.10;;;;;;5055799;28;20024;-72
2021/08/01 01:03:16;;;;;;;4.95;2.58;;;17.60;77.50;;;;;;5055746;28;20025;-73
2021/08/01 01:06:03;;;;;;;8.80;2.45;;;17.50;76.90;;;;;;5055491;28;20072;-74
2021/08/01 01:08:40;;;;;;;7.63;2.63;;;17.50;76.60;;;;;;5055412;28;20029;-73
2021/08/01 01:11:07;;;;;;;6.00;2.80;;;17.40;76.80;;;;;;5055495;28;20032;-73
2021/08/01 01:13:43;;;;;;;8.15;3.13;;;17.30;78.20;;;;;;5055557;28;20025;-73
2021/08/01 01:16:09;;;;;;;3.40;2.58;;;17.30;77.80;;;;;;5055510;28;20389;-73
2021/08/01 01:18:46;;;;;;;4.30;2.50;;;17.30;77.60;;;;;;5055416;28;20017;-74
2021/08/01 01:21:23;;;;;;;4.22;2.38;;;17.30;77.50;;;;;;5055488;28;20376;-73
2021/08/01 01:24:17;;;;;;;5.93;2.63;;;17.30;76.70;;;;;;5055302;28;20024;-73
2021/08/01 01:27:06;;;;;;;6.53;2.50;;;17.20;77.60;;;;;;5052129;28;20041;-73
2021/08/01 01:29:44;;;;;;;11.23;2.88;;;17.10;76.70;;;;;;5055271;28;20029;-73
2021/08/01 01:32:19;;;;;;;12.10;2.83;;;17.10;78.20;;;;;;5055254;28;20341;-73
2021/08/01 01:34:59;;;;;;;6.28;2.65;;;17.20;78.50;;;;;;5055104;28;20040;-73
2021/08/01 01:37:26;;;;;;;5.68;2.40;;;17.10;77.80;;;;;;5055160;28;20377;-73
2021/08/01 01:39:52;;;;;;;4.13;2.67;;;17.00;78.20;;;;;;5053636;28;20040;-73
2021/08/01 01:42:22;;;;;;;5.53;2.72;;;17.00;78.70;;;;;;5054697;28;20025;-73
2021/08/01 01:44:48;;;;;;;4.28;2.50;;;17.00;78.90;;;;;;5054916;28;20052;-73
2021/08/01 01:47:15;;;;;;;4.22;3.05;;;17.00;79.30;;;;;;5054930;28;20056;-74
2021/08/01 01:49:43;;;;;;;4.18;2.53;;;16.90;78.10;;;;;;5054779;28;20025;-73
2021/08/01 01:52:14;;;;;;;7.95;2.58;;;16.90;78.50;;;;;;5054756;28;20024;-80
2021/08/01 01:54:41;;;;;;;6.78;2.55;;;16.90;79.40;;;;;;5054702;28;20555;-75
2021/08/01 01:57:08;;;;;;;6.90;2.45;;;16.90;79.50;;;;;;5054714;28;20024;-77
2021/08/01 01:59:34;;;;;;;5.47;2.67;;;16.90;79.00;;;;;;5054678;28;20037;-73
2021/08/01 02:02:00;;;;;;;6.38;2.92;;;16.80;79.10;;;;;;5054679;28;20021;-76
2021/08/01 02:04:25;;;;;;;5.28;2.53;;;16.70;79.90;;;;;;5054373;28;20032;-75
2021/08/01 02:06:51;;;;;;;4.65;2.85;;;16.70;79.80;;;;;;5054480;28;20033;-74
2021/08/01 02:09:45;;;;;;;4.75;2.63;;;16.80;80.50;;;;;;5054474;28;20159;-76
2021/08/01 02:12:41;;;;;;;7.13;2.60;;;17.00;79.10;;;;;;5054422;28;20028;-73
2021/08/01 02:15:10;;;;;;;5.68;2.90;;;17.00;78.80;;;;;;5031704;28;20045;-73
2021/08/01 02:17:59;;;;;;;6.65;2.53;;;17.00;78.50;;;;;;5054421;28;20029;-73
2021/08/01 02:20:39;;;;;;;6.15;2.50;;;17.00;78.00;;;;;;5054367;28;20539;-73
2021/08/01 02:23:08;;;;;;;4.35;2.40;;;16.90;78.50;;;;;;5054174;28;20028;-73
2021/08/01 02:25:34;;;;;;;5.13;2.15;;;16.80;78.50;;;;;;5054198;28;20017;-73
2021/08/01 02:28:03;;;;;;;4.10;2.50;;;16.80;78.80;;;;;;5054039;28;20369;-73
2021/08/01 02:30:30;;;;;;;3.72;2.17;;;16.80;79.20;;;;;;5054008;28;20029;-75
2021/08/01 02:32:56;;;;;;;5.70;2.33;;;16.70;79.20;;;;;;5053998;28;20060;-73
2021/08/01 02:35:23;;;;;;;5.57;2.60;;;16.60;79.20;;;;;;5053932;28;20592;-73
2021/08/01 02:37:53;;;;;;;4.88;2.25;;;16.60;79.10;;;;;;5053796;28;20488;-74
2021/08/01 02:40:19;;;;;;;4.72;2.40;;;16.60;80.10;;;;;;5054076;28;20032;-75
2021/08/01 02:42:47;;;;;;;5.88;2.47;;;16.60;80.40;;;;;;5053809;28;20013;-73
2021/08/01 02:45:13;;;;;;;3.47;1.88;;;16.60;79.50;;;;;;5035862;28;20044;-73
2021/08/01 02:47:40;;;;;;;5.03;2.22;;;16.50;79.30;;;;;;5053796;28;20029;-73
2021/08/01 02:50:08;;;;;;;4.53;2.10;;;16.30;79.70;;;;;;5053735;28;20474;-76
2021/08/01 02:52:47;;;;;;;7.28;2.22;;;16.20;80.10;;;;;;5053645;28;20021;-73
2021/08/01 02:55:15;;;;;;;5.75;2.40;;;16.00;80.90;;;;;;5052966;28;20118;-75
2021/08/01 02:57:46;;;;;;;3.80;2.08;;;16.00;81.00;;;;;;5054335;28;20017;-74
2021/08/01 03:00:12;;;;;;;5.50;2.15;;;16.00;81.10;;;;;;5054020;28;20074;-73
2021/08/01 03:02:38;;;;;;;4.97;2.20;;;16.10;80.80;;;;;;5053472;28;20029;-73
2021/08/01 03:05:06;;;;;;;2.78;1.90;;;16.10;80.30;;;;;;5053242;28;20073;-73
2021/08/01 03:07:32;;;;;;;6.95;2.67;;;16.00;80.90;;;;;;5035522;28;20063;-73
2021/08/01 03:09:58;;;;;;;4.57;1.95;;;16.00;81.00;;;;;;5053372;28;20039;-73
2021/08/01 03:12:23;;;;;;;4.50;2.05;;;16.10;81.00;;;;;;5053324;28;20100;-73
2021/08/01 03:14:49;;;;;;;4.55;2.45;;;16.20;80.80;;;;;;5035297;28;20544;-74
2021/08/01 03:17:15;;;;;;;16.65;2.70;;;16.20;80.40;;;;;;5053295;28;20028;-73
2021/08/01 03:19:40;;;;;;;5.72;2.20;;;16.30;80.80;;;;;;5053239;28;20028;-72
2021/08/01 03:22:07;;;;;;;3.40;2.10;;;16.30;80.40;;;;;;5053080;28;20025;-73
2021/08/01 03:24:32;;;;;;;3.95;2.45;;;16.30;80.60;;;;;;5053176;28;20029;-74
2021/08/01 03:26:58;;;;;;;3.72;2.28;;;16.30;81.00;;;;;;5053029;28;20024;-77
2021/08/01 03:29:24;;;;;;;4.15;1.88;;;16.20;81.20;;;;;;5053048;28;20025;-75
2021/08/01 03:31:50;;;;;;;2.63;1.80;;;16.20;81.70;;;;;;5052988;28;20139;-73
2021/08/01 03:34:15;;;;;;;3.75;2.15;;;16.10;82.00;;;;;;5052842;28;20071;-73
2021/08/01 03:36:41;;;;;;;4.43;2.22;;;16.10;83.00;;;;;;5053082;28;20116;-74
2021/08/01 03:39:07;;;;;;;3.40;2.03;;;16.10;82.30;;;;;;5051563;28;20076;-75
2021/08/01 03:41:33;;;;;;;4.97;2.22;;;16.10;82.50;;;;;;5053068;28;20029;-74
2021/08/01 03:43:58;;;;;;;4.65;2.33;;;16.10;82.50;;;;;;5052885;28;20028;-73
2021/08/01 03:46:24;;;;;;;3.65;2.55;;;16.10;82.40;;;;;;5035144;28;20025;-75
2021/08/01 03:48:49;;;;;;;4.47;2.40;;;16.10;82.60;;;;;;5052795;28;20469;-74
2021/08/01 03:51:15;;;;;;;5.40;2.58;;;16.00;82.60;;;;;;5052793;28;20070;-75
2021/08/01 03:53:41;;;;;;;3.03;2.30;;;16.00;82.80;;;;;;5052639;28;20029;-74
2021/08/01 03:56:06;;;;;;;3.03;1.95;;;16.10;83.00;;;;;;5052780;28;20044;-74
2021/08/01 03:58:32;;;;;;;5.82;2.92;;;16.10;82.80;;;;;;5052729;28;20029;-73
2021/08/01 04:00:58;;;;;;;3.83;1.98;;;16.10;83.00;;;;;;5052767;28;20060;-74
2021/08/01 04:03:23;;;;;;;4.10;2.30;;;16.10;82.60;;;;;;5052778;28;20021;-75
2021/08/01 04:05:49;;;;;;;5.07;2.35;;;16.10;82.60;;;;;;5053656;28;20106;-73
2021/08/01 04:08:15;;;;;;;3.22;2.30;;;16.10;82.50;;;;;;5056765;28;20021;-73
2021/08/01 04:10:40;;;;;;;3.55;2.25;;;16.10;82.50;;;;;;5056709;28;20036;-73
2021/08/01 04:13:06;;;;;;;5.72;2.72;;;16.10;82.50;;;;;;5038923;28;20529;-74
2021/08/01 04:15:32;;;;;;;5.68;2.20;;;16.10;82.60;;;;;;5056565;28;20037;-73
2021/08/01 04:17:58;;;;;;;2.45;1.90;;;16.10;82.50;;;;;;5056522;28;20473;-72
2021/08/01 04:20:24;;;;;;;3.45;2.38;;;16.20;82.30;;;;;;5056577;28;20085;-73
2021/08/01 04:22:53;;;;;;;3.83;2.17;;;16.10;82.10;;;;;;5056441;28;20100;-73
2021/08/01 04:25:19;;;;;;;4.47;1.90;;;16.00;82.20;;;;;;5056487;28;20098;-72
2021/08/01 04:27:44;;;;;;;3.25;2.20;;;15.90;82.30;;;;;;5056353;28;20060;-72
2021/08/01 04:30:10;;;;;;;4.47;2.10;;;16.00;82.80;;;;;;5056316;28;20059;-73
2021/08/01 04:32:36;;;;;;;2.20;1.92;;;16.00;82.80;;;;;;5056363;28;20029;-73
2021/08/01 04:35:02;;;;;;;2.95;1.90;;;16.00;83.10;;;;;;5056270;28;20044;-73
2021/08/01 04:37:29;;;;;;;5.45;2.83;;;16.00;82.80;;;;;;5038402;28;20201;-73
2021/08/01 04:39:54;;;;;;;7.45;2.33;;;16.00;82.70;;;;;;5038307;28;20039;-72
2021/08/01 04:42:20;;;;;;;3.38;2.03;;;15.90;82.70;;;;;;5056240;28;20557;-72
2021/08/01 04:44:45;;;;;;;6.05;2.75;;;16.00;82.70;;;;;;5056097;28;20385;-74
2021/08/01 04:47:13;;;;;;;3.38;2.13;;;15.90;83.00;;;;;;5056115;28;20436;-73
2021/08/01 04:49:39;;;;;;;3.05;2.35;;;16.00;83.00;;;;;;5056745;28;20056;-75
2021/08/01 04:52:05;;;;;;;4.50;2.25;;;15.90;83.10;;;;;;5056028;28;20044;-73
2021/08/01 04:54:31;;;;;;;4.28;2.45;;;16.00;83.20;;;;;;5056007;28;20033;-73
2021/08/01 04:56:56;;;;;;;4.82;2.47;;;16.10;83.40;;;;;;5055907;28;20024;-72
2021/08/01 04:59:22;;;;;;;4.82;2.40;;;16.20;83.20;;;;;;5038187;28;20029;-74
2021/08/01 05:01:47;;;;;;;3.65;2.13;;;16.30;83.20;;;;;;5056026;28;20029;-73
2021/08/01 05:04:13;;;;;;;3.55;2.22;;;16.30;82.70;;;;;;5038022;28;20402;-73
2021/08/01 05:06:39;;;;;;;4.35;2.53;;;16.40;82.20;;;;;;5055804;28;20041;-73
2021/08/01 05:09:05;;;;;;;3.72;2.30;;;16.40;82.10;;;;;;5055975;28;20116;-72
2021/08/01 05:11:30;;;;;;;4.80;2.85;;;16.40;82.00;;;;;;5056684;28;20028;-72
2021/08/01 05:13:56;;;;;;;6.07;2.90;;;16.40;82.20;;;;;;5057362;28;20025;-72
2021/08/01 05:16:21;;;;;;;3.15;2.53;;;16.40;82.40;;;;;;5056593;28;20029;-73
2021/08/01 05:18:47;;;;;;;4.13;2.35;;;16.40;82.40;;;;;;5061415;28;20029;-73
2021/08/01 05:21:18;;;;;;;2.90;2.38;;;16.40;82.40;;;;;;5057247;28;20041;-73
2021/08/01 05:23:43;;;;;;;5.57;2.47;;;16.40;83.30;;;;;;5063934;28;20397;-72
2021/08/01 05:26:09;;;;;;;5.88;2.70;;;16.40;82.70;;;;;;5057237;28;20013;-73
2021/08/01 05:28:35;;;;;;;7.25;2.50;;;16.40;82.70;;;;;;5059117;28;20466;-73
2021/08/01 05:31:00;;;;;;;5.28;2.45;;;16.40;82.80;;;;;;5058817;28;20021;-73
2021/08/01 05:33:26;;;;;;;3.20;2.63;;;16.50;82.90;;;;;;5041125;28;20062;-73
2021/08/01 05:35:52;;;;;;;3.03;2.42;;;16.50;82.80;;;;;;5058227;28;20025;-73
2021/08/01 05:38:18;;;;;;;5.38;2.80;;;16.50;82.80;;;;;;5058463;28;20051;-71
2021/08/01 05:40:44;;;;;;;3.10;2.40;;;16.50;82.90;;;;;;5058053;28;20021;-72
2021/08/01 05:43:10;;;;;;;5.22;2.78;;;16.50;82.80;;;;;;5057464;28;20027;-73
2021/08/01 05:45:35;;;;;;;6.53;2.92;;;16.50;82.90;;;;;;5058112;28;20084;-71
2021/08/01 05:48:01;;;;;;;4.35;2.92;;;16.50;82.90;;;;;;5057233;28;20118;-71
2021/08/01 05:50:26;;;;;;;3.00;2.42;;;16.50;83.10;;;;;;5057973;28;20021;-72
2021/08/01 05:52:52;;;;;;;2.50;2.30;;;16.50;83.30;;;;;;5057380;28;20039;-71
2021/08/01 05:55:18;;;;;;;4.60;2.75;;;16.60;83.30;;;;;;5056628;28;20093;-71
2021/08/01 05:57:43;;;;;;;4.18;2.70;;;16.60;83.30;;;;;;5056249;28;20114;-73
2021/08/01 06:00:09;;;;;;;5.38;2.95;;;16.60;83.30;;;;;;5056446;28;20033;-72
2021/08/01 06:02:35;;;;;;;4.53;2.70;;;16.70;83.20;;;;;;5056540;28;20067;-73
2021/08/01 06:05:00;;;;;;;6.07;2.50;;;16.70;82.90;;;;;;5055698;28;20053;-73
2021/08/01 06:07:26;;;;;;;2.95;2.60;;;16.70;82.90;;;;;;5056350;28;20032;-72
2021/08/01 06:09:51;;;;;;;2.63;2.42;;;16.60;82.80;;;;;;5055526;28;20029;-71
2021/08/01 06:12:17;;;;;;;5.80;2.70;;;16.60;82.80;;;;;;5055816;28;20028;-71
2021/08/01 06:14:46;;;;;;;4.38;2.88;;;16.70;82.60;;;;;;5055450;28;20397;-72
2021/08/01 06:17:11;;;;;;;29.08;19.95;;;16.70;82.40;;;;;;5055489;28;20025;-73
2021/08/01 06:19:37;;;;;;;19.92;13.57;;;16.70;82.90;;;;;;5056059;28;20044;-71
2021/08/01 06:22:03;;;;;;;12.82;8.70;;;16.80;82.50;;;;;;5055546;28;20082;-72
2021/08/01 06:24:28;;;;;;;7.03;3.90;;;16.80;82.10;;;;;;5055960;28;20061;-70
2021/08/01 06:26:54;;;;;;;7.95;3.75;;;16.90;82.10;;;;;;5055281;28;20021;-70
2021/08/01 06:29:19;;;;;;;4.50;3.08;;;16.90;82.10;;;;;;5054686;28;20032;-71
2021/08/01 06:31:45;;;;;;;5.18;3.00;;;17.00;82.10;;;;;;5055299;28;20028;-71
2021/08/01 06:34:10;;;;;;;5.68;3.38;;;17.00;82.20;;;;;;5054901;28;20041;-71
2021/08/01 06:36:36;;;;;;;7.95;3.42;;;17.00;82.30;;;;;;5054273;28;20027;-71
2021/08/01 06:39:02;;;;;;;7.50;3.30;;;17.00;82.30;;;;;;5054993;28;20118;-71
2021/08/01 06:41:27;;;;;;;3.92;2.80;;;17.00;81.70;;;;;;5055202;28;20041;-71
2021/08/01 06:43:53;;;;;;;3.53;3.15;;;17.10;81.90;;;;;;5054559;28;20017;-73
2021/08/01 06:46:19;;;;;;;6.20;2.85;;;17.10;82.00;;;;;;5056131;28;20477;-71
2021/08/01 06:48:44;;;;;;;7.53;3.72;;;17.00;81.70;;;;;;5053603;28;20109;-71
2021/08/01 06:51:19;;;;;;;6.00;3.72;;;17.00;81.90;;;;;;5179757;27;20437;-71
2021/08/01 06:53:45;;;;;;;6.95;3.35;;;16.80;82.30;;;;;;5154278;27;20030;-71
2021/08/01 06:56:10;;;;;;;4.45;3.20;;;16.80;82.40;;;;;;5172992;27;20093;-72
2021/08/01 06:58:36;;;;;;;3.53;3.05;;;16.80;82.20;;;;;;5172948;27;20478;-71
2021/08/01 07:01:04;;;;;;;6.63;3.53;;;16.90;82.30;;;;;;5172547;27;20030;-72
2021/08/01 07:03:30;;;;;;;5.05;3.00;;;16.90;82.10;;;;;;5154069;27;20015;-72
2021/08/01 07:05:56;;;;;;;3.83;2.80;;;16.90;80.80;;;;;;5153689;27;20070;-73
2021/08/01 07:08:21;;;;;;;4.22;3.30;;;16.90;80.80;;;;;;5172522;27;20026;-72
2021/08/01 07:10:47;;;;;;;5.03;3.42;;;16.90;81.00;;;;;;5172140;27;20026;-72
2021/08/01 07:13:13;;;;;;;7.88;3.22;;;16.90;79.80;;;;;;5172316;27;20497;-73
2021/08/01 07:15:39;;;;;;;5.68;3.40;;;16.90;78.90;;;;;;5172386;27;20018;-71
2021/08/01 07:18:06;;;;;;;5.22;3.22;;;16.80;79.60;;;;;;5172315;27;20011;-72
2021/08/01 07:20:32;;;;;;;3.97;2.92;;;16.70;80.30;;;;;;5172456;27;20502;-71
2021/08/01 07:22:58;;;;;;;15.70;10.55;;;16.70;81.10;;;;;;5172309;27;20493;-71
2021/08/01 07:25:24;;;;;;;18.73;13.60;;;16.80;81.30;;;;;;5172206;27;20031;-73
2021/08/01 07:27:54;;;;;;;30.90;21.95;;;16.80;81.70;;;;;;5172256;27;20019;-72
2021/08/01 07:30:20;;;;;;;14.02;10.77;;;17.00;81.90;;;;;;5172258;27;20030;-72
2021/08/01 07:32:46;;;;;;;10.95;6.07;;;17.00;82.10;;;;;;5153722;27;20019;-73
2021/08/01 07:35:12;;;;;;;7.03;4.57;;;17.00;82.50;;;;;;5172197;27;20091;-71
2021/08/01 07:37:38;;;;;;;7.03;3.60;;;17.10;83.10;;;;;;5172184;27;20030;-72
2021/08/01 07:40:04;;;;;;;5.82;3.78;;;17.10;82.90;;;;;;5171963;27;20019;-74
2021/08/01 07:42:31;;;;;;;18.02;4.22;;;17.10;83.30;;;;;;5172352;27;20033;-78
2021/08/01 07:45:01;;;;;;;6.57;3.42;;;17.10;84.00;;;;;;5171809;27;20014;-78
2021/08/01 07:47:27;;;;;;;7.68;3.28;;;17.10;83.60;;;;;;5171971;27;20010;-78
2021/08/01 07:49:52;;;;;;;8.98;3.80;;;17.30;83.30;;;;;;5171608;27;20117;-76
2021/08/01 07:52:19;;;;;;;5.88;3.28;;;17.40;82.20;;;;;;5171796;27;20088;-76
2021/08/01 07:54:46;;;;;;;4.85;3.13;;;17.50;81.70;;;;;;5171632;27;20053;-76
2021/08/01 07:57:27;;;;;;;5.47;3.22;;;17.60;80.90;;;;;;5171871;27;20072;-78
2021/08/01 07:59:54;;;;;;;5.25;3.10;;;17.70;80.70;;;;;;5171480;27;20053;-77
2021/08/01 08:02:19;;;;;;;5.63;3.42;;;17.70;80.50;;;;;;5159582;27;20062;-77
2021/08/01 08:04:46;;;;;;;5.40;3.00;;;17.70;80.30;;;;;;5157605;27;20050;-76
2021/08/01 08:07:11;;;;;;;6.65;3.53;;;17.70;80.10;;;;;;5139142;27;20078;-77
2021/08/01 08:09:37;;;;;;;5.93;3.28;;;17.80;79.70;;;;;;5138996;27;20038;-77
2021/08/01 08:12:03;;;;;;;5.95;3.15;;;17.70;80.20;;;;;;5157500;27;20451;-76
2021/08/01 08:14:29;;;;;;;6.13;3.83;;;17.60;80.40;;;;;;5157396;27;20370;-77
2021/08/01 08:16:54;;;;;;;4.95;3.28;;;17.50;80.70;;;;;;5157494;27;20047;-77
2021/08/01 08:19:20;;;;;;;4.18;2.80;;;17.50;80.80;;;;;;5157390;27;20025;-77
2021/08/01 08:21:45;;;;;;;6.53;3.65;;;17.40;81.00;;;;;;5157334;27;20023;-78
2021/08/01 08:24:11;;;;;;;7.20;3.50;;;17.40;81.80;;;;;;5157622;27;20022;-77
2021/08/01 08:26:37;;;;;;;4.90;3.22;;;17.40;80.80;;;;;;5157386;27;20072;-78
2021/08/01 08:29:02;;;;;;;5.55;3.13;;;17.40;81.70;;;;;;5157259;27;20027;-77
2021/08/01 08:31:28;;;;;;;3.47;2.75;;;17.40;80.70;;;;;;5157348;27;20027;-72
2021/08/01 08:33:53;;;;;;;5.00;3.10;;;17.50;80.20;;;;;;5157032;27;20029;-70
2021/08/01 08:36:19;;;;;;;6.50;3.17;;;17.50;79.80;;;;;;5157138;27;20027;-72
2021/08/01 08:38:44;;;;;;;3.85;2.63;;;17.50;80.00;;;;;;5157008;27;20019;-72
2021/08/01 08:41:16;;;;;;;6.45;3.58;;;17.50;80.60;;;;;;5138237;27;20025;-72
2021/08/01 08:43:45;;;;;;;5.60;2.88;;;17.40;80.80;;;;;;5156965;27;20023;-72
2021/08/01 08:46:11;;;;;;;6.72;3.13;;;17.50;81.20;;;;;;5157135;27;20019;-73
2021/08/01 08:48:41;;;;;;;8.77;3.50;;;17.50;81.00;;;;;;5156796;27;20027;-72
2021/08/01 08:51:11;;;;;;;6.82;3.28;;;17.40;79.00;;;;;;5156541;27;20042;-72
2021/08/01 08:53:49;;;;;;;5.28;3.63;;;17.40;79.10;;;;;;5156645;27;20034;-73
2021/08/01 08:56:16;;;;;;;12.25;4.70;;;17.30;79.10;;;;;;5156629;27;20491;-73
2021/08/01 08:58:44;;;;;;;5.63;3.60;;;17.20;79.50;;;;;;5156709;27;20028;-72
2021/08/01 09:01:10;;;;;;;4.00;2.47;;;17.20;79.70;;;;;;5156584;27;20011;-72
2021/08/01 09:03:35;;;;;;;11.23;3.45;;;17.20;78.40;;;;;;5156561;27;20106;-72
2021/08/01 09:06:01;;;;;;;7.00;2.88;;;17.20;78.00;;;;;;5156578;27;20015;-72
2021/08/01 09:08:27;;;;;;;6.47;3.30;;;17.10;79.20;;;;;;5156494;27;20023;-72
2021/08/01 09:10:56;;;;;;;5.95;2.90;;;17.10;79.40;;;;;;5156281;27;20541;-72
2021/08/01 09:13:45;;;;;;;4.60;3.25;;;16.90;80.00;;;;;;5155360;27;20054;-72
2021/08/01 09:16:12;;;;;;;6.22;3.20;;;16.60;82.10;;;;;;5156469;27;20027;-71
2021/08/01 09:18:37;;;;;;;4.75;3.15;;;16.40;82.30;;;;;;5156320;27;20019;-72
2021/08/01 09:21:03;;;;;;;3.90;2.88;;;16.60;82.50;;;;;;5156121;27;20026;-72
2021/08/01 09:23:29;;;;;;;6.28;3.25;;;16.70;81.70;;;;;;5156006;27;20023;-72
2021/08/01 09:25:59;;;;;;;7.53;3.40;;;17.00;80.80;;;;;;5156069;27;20474;-72
2021/08/01 09:28:25;;;;;;;6.25;3.65;;;16.90;81.10;;;;;;5156037;27;20042;-72
2021/08/01 09:31:18;;;;;;;5.53;3.30;;;17.00;79.90;;;;;;5155945;27;20390;-72
2021/08/01 09:33:51;;;;;;;4.45;3.00;;;17.10;80.00;;;;;;5155825;27;20478;-72
2021/08/01 09:36:22;;;;;;;4.07;2.90;;;17.10;80.00;;;;;;5155830;27;20023;-72
2021/08/01 09:38:55;;;;;;;5.30;2.90;;;17.00;79.90;;;;;;5155693;27;20407;-71
2021/08/01 09:41:26;;;;;;;3.97;2.67;;;17.20;79.10;;;;;;5155851;27;20370;-71
2021/08/01 09:43:56;;;;;;;6.22;3.08;;;17.30;79.10;;;;;;5155541;27;20014;-71
2021/08/01 09:46:46;;;;;;;4.00;2.67;;;17.40;79.40;;;;;;5137380;27;20018;-72
2021/08/01 09:49:12;;;;;;;5.35;2.97;;;17.30;79.90;;;;;;5155460;27;20048;-73
2021/08/01 09:51:45;;;;;;;3.28;2.72;;;17.40;80.10;;;;;;5155682;27;20022;-71
2021/08/01 09:54:13;;;;;;;8.98;7.22;;;17.40;79.20;;;;;;5155571;27;20019;-72
2021/08/01 09:56:50;;;;;;;8.27;3.47;;;17.40;80.80;;;;;;5155547;27;20023;-72
2021/08/01 09:59:21;;;;;;;3.53;2.10;;;17.50;77.80;;;;;;5155442;27;20015;-73
2021/08/01 10:01:50;;;;;;;3.30;2.47;;;17.60;79.80;;;;;;5155334;27;20466;-72
2021/08/01 10:04:30;;;;;;;5.47;2.80;;;17.70;77.70;;;;;;5155355;27;20023;-73
2021/08/01 10:07:09;;;;;;;5.10;3.70;;;17.80;76.20;;;;;;5155369;27;20030;-73
2021/08/01 10:09:36;;;;;;;5.65;4.35;;;17.70;76.40;;;;;;5155231;27;20030;-73
2021/08/01 10:12:03;;;;;;;4.30;2.90;;;17.70;75.80;;;;;;5155130;27;20383;-73
2021/08/01 10:14:29;;;;;;;3.80;2.88;;;17.60;75.70;;;;;;5155158;27;20496;-73
2021/08/01 10:16:56;;;;;;;3.10;2.40;;;17.30;78.70;;;;;;5155075;27;20021;-72
2021/08/01 10:19:22;;;;;;;3.05;2.65;;;17.40;80.00;;;;;;5155125;27;20293;-73
2021/08/01 10:21:49;;;;;;;4.40;2.90;;;17.50;78.00;;;;;;5155117;27;20506;-73
2021/08/01 10:24:19;;;;;;;3.85;2.90;;;17.30;77.30;;;;;;5155240;27;20026;-72
2021/08/01 10:26:51;;;;;;;4.32;2.95;;;17.30;78.80;;;;;;5155475;27;20026;-72
2021/08/01 10:29:25;;;;;;;5.25;2.65;;;17.20;79.80;;;;;;5154952;27;20372;-72
2021/08/01 10:31:58;;;;;;;5.13;2.78;;;17.30;79.50;;;;;;5136438;27;20031;-72
2021/08/01 10:34:24;;;;;;;2.42;2.10;;;17.10;79.20;;;;;;5154863;27;20019;-72
2021/08/01 10:36:53;;;;;;;3.08;2.03;;;17.10;79.70;;;;;;5154637;27;20026;-71
2021/08/01 10:39:21;;;;;;;4.05;1.70;;;17.40;77.10;;;;;;5154775;27;20030;-72
2021/08/01 10:41:48;;;;;;;3.33;1.85;;;17.60;76.40;;;;;;5154762;27;20550;-71
2021/08/01 10:44:14;;;;;;;2.55;2.20;;;17.90;72.90;;;;;;5154752;27;20471;-73
2021/08/01 10:46:41;;;;;;;4.78;3.00;;;18.20;71.80;;;;;;5154780;27;20027;-73
2021/08/01 10:49:11;;;;;;;4.53;3.17;;;18.40;72.40;;;;;;5154649;27;20030;-72
2021/08/01 10:51:38;;;;;;;4.03;2.45;;;18.60;70.50;;;;;;5154952;27;20058;-73
2021/08/01 10:54:33;;;;;;;4.82;3.13;;;18.70;71.90;;;;;;5153980;27;20068;-71
2021/08/01 10:57:19;;;;;;;3.60;1.67;;;18.90;68.70;;;;;;5132721;27;20512;-71
2021/08/01 10:59:45;;;;;;;3.03;2.38;;;18.90;69.80;;;;;;5154460;27;20026;-71
2021/08/01 11:02:14;;;;;;;4.13;2.30;;;18.40;71.80;;;;;;5154630;27;20091;-72
2021/08/01 11:04:43;;;;;;;4.47;3.00;;;18.30;72.10;;;;;;5155019;27;20101;-72
2021/08/01 11:07:09;;;;;;;4.95;2.88;;;18.50;72.70;;;;;;5154683;27;20026;-73
2021/08/01 11:09:35;;;;;;;4.20;2.78;;;18.70;70.60;;;;;;5135790;27;20035;-74
2021/08/01 11:12:19;;;;;;;3.40;2.70;;;19.00;73.20;;;;;;5154532;27;20030;-72
2021/08/01 11:14:49;;;;;;;5.63;3.00;;;19.10;69.60;;;;;;5154483;27;20038;-74
2021/08/01 11:17:20;;;;;;;7.25;3.00;;;19.20;70.90;;;;;;5154396;27;20493;-72
2021/08/01 11:19:46;;;;;;;14.13;3.72;;;19.30;68.60;;;;;;5154360;27;20027;-73
2021/08/01 11:22:40;;;;;;;5.47;3.25;;;19.40;70.30;;;;;;5154359;27;20387;-72
2021/08/01 11:25:28;;;;;;;5.40;2.75;;;19.50;68.20;;;;;;5135799;27;20405;-72
2021/08/01 11:28:09;;;;;;;9.30;4.72;;;19.70;68.20;;;;;;5154370;27;20023;-72
2021/08/01 11:30:58;;;;;;;7.03;3.30;;;20.00;67.80;;;;;;5154276;27;20087;-72
2021/08/01 11:33:42;;;;;;;6.88;3.70;;;20.10;67.50;;;;;;5138706;27;20027;-72
2021/08/01 11:36:11;;;;;;;5.85;3.45;;;20.20;64.80;;;;;;5154914;27;20053;-73
2021/08/01 11:38:59;;;;;;;6.60;3.53;;;20.40;64.80;;;;;;5158004;27;20057;-73
2021/08/01 11:41:28;;;;;;;5.88;3.40;;;20.00;65.40;;;;;;5158176;27;20516;-73
2021/08/01 11:44:02;;;;;;;5.43;2.90;;;19.80;67.10;;;;;;5157927;27;20079;-73
2021/08/01 11:46:50;;;;;;;6.13;3.28;;;19.90;64.50;;;;;;5158181;27;20023;-74
2021/08/01 11:49:25;;;;;;;5.20;2.30;;;20.10;65.80;;;;;;5157904;27;20023;-73
2021/08/01 11:51:52;;;;;;;6.32;3.25;;;20.20;62.20;;;;;;5157890;27;20075;-74
2021/08/01 11:54:18;;;;;;;8.00;3.28;;;20.10;63.40;;;;;;5157940;27;20485;-72
2021/08/01 11:56:45;;;;;;;4.63;2.88;;;20.10;63.30;;;;;;5157851;27;20025;-74
2021/08/01 11:59:15;;;;;;;17.63;4.93;;;20.00;63.10;;;;;;5157652;27;20022;-73
2021/08/01 12:01:41;;;;;;;16.50;5.82;;;19.80;66.30;;;;;;5139257;27;20067;-76
2021/08/01 12:04:08;;;;;;;7.55;3.38;;;19.40;68.30;;;;;;5158382;27;20046;-74
2021/08/01 12:06:35;;;;;;;10.68;4.38;;;19.50;66.50;;;;;;5157759;27;20053;-74
2021/08/01 12:09:17;;;;;;;10.52;4.10;;;19.60;65.20;;;;;;5157573;27;20106;-72
2021/08/01 12:11:47;;;;;;;6.65;3.60;;;19.80;65.20;;;;;;5157529;27;20019;-73
2021/08/01 12:14:14;;;;;;;12.55;4.18;;;19.90;66.00;;;;;;5157547;27;20010;-73
2021/08/01 12:16:58;;;;;;;9.00;3.60;;;20.10;66.50;;;;;;5157444;27;20075;-73
2021/08/01 12:19:26;;;;;;;5.93;2.95;;;20.30;64.50;;;;;;5157432;27;20546;-73
2021/08/01 12:21:59;;;;;;;8.80;3.55;;;20.60;62.40;;;;;;5157663;27;20058;-72
2021/08/01 12:24:26;;;;;;;4.32;2.90;;;20.70;62.50;;;;;;5157368;27;20424;-73
2021/08/01 12:26:51;;;;;;;4.15;2.80;;;20.90;61.20;;;;;;5157282;27;20015;-73
2021/08/01 12:29:31;;;;;;;5.97;3.85;;;21.00;59.30;;;;;;5157301;27;20087;-72
2021/08/01 12:31:57;;;;;;;6.82;3.22;;;21.20;59.60;;;;;;5157244;27;20022;-74
2021/08/01 12:34:23;;;;;;;4.20;2.75;;;21.40;58.90;;;;;;5157259;27;20023;-75
2021/08/01 12:36:49;;;;;;;4.43;3.20;;;21.70;58.40;;;;;;5157107;27;20067;-72
2021/08/01 12:39:17;;;;;;;5.30;2.80;;;21.50;58.90;;;;;;5157065;27;20023;-73
2021/08/01 12:41:47;;;;;;;7.47;3.10;;;21.60;58.10;;;;;;5156945;27;20041;-72
2021/08/01 12:44:19;;;;;;;5.20;2.80;;;22.00;56.80;;;;;;5156992;27;20071;-72
2021/08/01 12:46:46;;;;;;;3.72;2.40;;;22.30;54.10;;;;;;5156985;27;20030;-72
2021/08/01 12:49:12;;;;;;;7.28;2.85;;;22.30;54.30;;;;;;5138506;27;20042;-72
2021/08/01 12:51:43;;;;;;;3.47;2.22;;;22.40;53.60;;;;;;5156922;27;20030;-71
2021/08/01 12:54:10;;;;;;;7.22;2.50;;;22.70;51.70;;;;;;5156507;27;20450;-72